Time;durP1;ratioP1;P1;durP2;ratioP2;P2;SDS_P1;SDS_P2;PMS_P1;PMS_P2;Temp;Humidity;BMP_temperature;BMP_pressure;BME280_temperature;BME280_humidity;BME280_pressure;Samples;Min_cycle;Max_cycle;Signal;HPM_P1;HPM_P2
2022/12/03 00:02:00;;;;;;;20.50;8.98;;;3.10;86.20;;;;;;5006171;28;20495;-65
2022/12/03 00:04:33;;;;;;;19.25;9.18;;;3.10;86.00;;;;;;5010147;28;20046;-65
2022/12/03 00:07:00;;;;;;;18.75;9.35;;;3.10;86.10;;;;;;5003142;28;20507;-65
2022/12/03 00:09:29;;;;;;;20.83;9.10;;;3.20;86.20;;;;;;5005599;28;20049;-65
2022/12/03 00:11:56;;;;;;;20.33;9.32;;;3.10;86.20;;;;;;5006272;28;20049;-65
2022/12/03 00:14:25;;;;;;;18.20;8.32;;;3.20;85.90;;;;;;5007208;28;20060;-65
2022/12/03 00:16:52;;;;;;;18.45;8.77;;;3.20;85.90;;;;;;5006813;28;20611;-64
2022/12/03 00:19:19;;;;;;;20.13;7.90;;;3.20;85.90;;;;;;5006186;28;20053;-65
2022/12/03 00:21:46;;;;;;;17.95;8.50;;;3.20;85.90;;;;;;5006773;28;20057;-64
2022/12/03 00:24:13;;;;;;;20.23;8.88;;;3.20;85.80;;;;;;5005762;28;20054;-65
2022/12/03 00:26:40;;;;;;;18.90;8.77;;;3.20;85.80;;;;;;5005243;28;20041;-65
2022/12/03 00:29:07;;;;;;;18.60;8.25;;;3.20;85.80;;;;;;5002434;28;20058;-65
2022/12/03 00:31:35;;;;;;;16.85;8.07;;;3.20;85.90;;;;;;5006132;28;20140;-65
2022/12/03 00:34:02;;;;;;;16.70;7.80;;;3.20;85.90;;;;;;5009694;28;20058;-66
2022/12/03 00:36:29;;;;;;;17.77;7.80;;;3.10;85.60;;;;;;5008018;28;20377;-65
2022/12/03 00:38:56;;;;;;;16.25;7.28;;;3.20;85.60;;;;;;5005411;28;20054;-65
2022/12/03 00:41:23;;;;;;;19.00;8.07;;;3.20;85.50;;;;;;4997934;28;20130;-65
2022/12/03 00:43:50;;;;;;;18.52;8.77;;;3.20;85.60;;;;;;5004743;28;20050;-65
2022/12/03 00:46:17;;;;;;;16.35;7.00;;;3.20;85.40;;;;;;5000590;28;20042;-65
2022/12/03 00:48:46;;;;;;;15.30;7.07;;;3.20;85.30;;;;;;5006420;28;20049;-65
2022/12/03 00:51:13;;;;;;;14.70;6.65;;;3.10;85.40;;;;;;5005484;28;20058;-66
2022/12/03 00:53:40;;;;;;;14.85;7.20;;;3.20;85.60;;;;;;5006531;28;20499;-66
2022/12/03 00:56:08;;;;;;;16.73;7.47;;;3.20;85.60;;;;;;5006437;28;20045;-64
2022/12/03 00:58:35;;;;;;;17.33;7.60;;;3.20;85.70;;;;;;5001169;28;20073;-65
2022/12/03 01:01:02;;;;;;;17.95;8.20;;;3.20;85.70;;;;;;5009756;28;20137;-65
2022/12/03 01:03:33;;;;;;;17.77;8.10;;;3.20;85.50;;;;;;4974468;28;20569;-66
2022/12/03 01:06:02;;;;;;;16.60;7.25;;;3.10;85.80;;;;;;5009986;28;20143;-66
2022/12/03 01:08:30;;;;;;;14.45;6.55;;;3.20;85.80;;;;;;5004953;28;20077;-64
2022/12/03 01:10:57;;;;;;;17.58;7.45;;;3.20;85.90;;;;;;4999459;28;20050;-65
2022/12/03 01:13:24;;;;;;;16.27;7.07;;;3.20;85.90;;;;;;5008499;28;20120;-65
2022/12/03 01:15:51;;;;;;;16.55;7.43;;;3.20;85.90;;;;;;4986839;28;20137;-65
2022/12/03 01:18:18;;;;;;;14.55;6.63;;;3.20;85.90;;;;;;5002302;28;20058;-66
2022/12/03 01:20:46;;;;;;;15.25;7.20;;;3.10;85.90;;;;;;5006629;28;20046;-65
2022/12/03 01:23:14;;;;;;;17.10;6.70;;;3.10;85.80;;;;;;5004169;28;20042;-65
2022/12/03 01:25:41;;;;;;;15.18;7.20;;;3.10;85.80;;;;;;5002004;28;20488;-64
2022/12/03 01:28:08;;;;;;;12.88;6.65;;;3.10;85.80;;;;;;5004116;28;20133;-64
2022/12/03 01:32:15;;;;;;;13.35;6.65;;;3.10;85.50;;;;;;5011961;28;20527;-60
2022/12/03 01:33:22;;;;;;;13.43;6.22;;;3.10;85.70;;;;;;5013261;28;20046;-59
2022/12/03 01:35:49;;;;;;;12.05;5.75;;;3.10;85.50;;;;;;5005339;28;20082;-60
2022/12/03 01:38:18;;;;;;;12.50;5.57;;;3.10;85.60;;;;;;5010765;28;20045;-59
2022/12/03 01:40:45;;;;;;;11.32;5.95;;;3.00;85.70;;;;;;5012849;28;20530;-59
2022/12/03 01:43:12;;;;;;;14.05;5.88;;;3.00;85.80;;;;;;5009576;28;20046;-59
2022/12/03 01:45:39;;;;;;;11.55;5.57;;;3.00;86.00;;;;;;5009787;28;20050;-60
2022/12/03 01:48:06;;;;;;;13.05;5.82;;;3.00;86.00;;;;;;5013022;28;20046;-59
2022/12/03 01:50:33;;;;;;;14.02;5.68;;;2.90;86.10;;;;;;4983976;28;20114;-60
2022/12/03 01:53:03;;;;;;;12.68;5.57;;;3.00;86.20;;;;;;4986287;28;20469;-60
2022/12/03 01:55:32;;;;;;;11.45;5.28;;;3.00;86.20;;;;;;5009201;28;20057;-60
2022/12/03 01:58:02;;;;;;;10.85;5.50;;;2.90;86.30;;;;;;5005511;28;20046;-60
2022/12/03 02:00:29;;;;;;;9.80;5.20;;;2.90;86.20;;;;;;5008745;28;20523;-71
2022/12/03 02:02:59;;;;;;;11.00;5.40;;;3.00;86.30;;;;;;5005906;28;20563;-71
2022/12/03 02:05:28;;;;;;;11.50;5.55;;;3.00;86.30;;;;;;4992193;28;20049;-71
2022/12/03 02:07:57;;;;;;;10.93;5.55;;;3.00;86.20;;;;;;5008933;28;20042;-71
2022/12/03 02:10:27;;;;;;;11.65;5.72;;;2.90;86.40;;;;;;5010231;28;20049;-70
2022/12/03 02:13:00;;;;;;;12.35;6.10;;;3.00;86.60;;;;;;5008810;28;20064;-72
2022/12/03 02:15:32;;;;;;;9.35;4.25;;;3.00;86.60;;;;;;5006071;28;20050;-70
2022/12/03 02:17:59;;;;;;;11.93;5.65;;;3.00;86.80;;;;;;5008371;28;20078;-71
2022/12/03 02:20:26;;;;;;;12.32;4.93;;;2.90;86.90;;;;;;5006963;28;20498;-72
2022/12/03 02:23:01;;;;;;;11.82;5.22;;;3.00;86.90;;;;;;5010532;28;20462;-71
2022/12/03 02:25:32;;;;;;;11.43;5.32;;;3.00;86.70;;;;;;5010629;28;20109;-71
2022/12/03 02:28:00;;;;;;;12.00;5.82;;;3.00;86.80;;;;;;5008719;28;20603;-71
2022/12/03 02:30:32;;;;;;;11.25;5.53;;;3.00;86.80;;;;;;5011179;28;20046;-71
2022/12/03 02:32:59;;;;;;;10.10;4.93;;;3.00;86.80;;;;;;5005740;28;20050;-70
2022/12/03 02:35:30;;;;;;;13.73;5.65;;;2.90;86.90;;;;;;5010519;28;20038;-71
2022/12/03 02:38:02;;;;;;;10.85;5.00;;;3.00;87.00;;;;;;5008836;28;20507;-71
2022/12/03 02:40:33;;;;;;;11.63;5.05;;;2.90;87.00;;;;;;5008659;28;20564;-70
2022/12/03 02:43:03;;;;;;;12.77;5.07;;;2.90;87.00;;;;;;5011079;28;20133;-70
2022/12/03 02:45:33;;;;;;;11.27;5.57;;;2.90;87.10;;;;;;5009280;28;20141;-71
2022/12/03 02:48:03;;;;;;;13.55;5.55;;;2.90;87.00;;;;;;5005233;28;20045;-70
2022/12/03 02:50:34;;;;;;;12.40;5.63;;;3.00;87.00;;;;;;5010757;28;20061;-70
2022/12/03 02:53:02;;;;;;;10.88;4.85;;;3.00;86.90;;;;;;5009452;28;20054;-71
2022/12/03 02:55:34;;;;;;;10.88;5.55;;;3.00;86.80;;;;;;4985200;28;20465;-71
2022/12/03 02:58:03;;;;;;;10.30;5.20;;;2.90;86.90;;;;;;5006930;28;20045;-72
2022/12/03 03:00:30;;;;;;;10.25;5.13;;;2.90;87.00;;;;;;5012743;28;20041;-71
2022/12/03 03:02:58;;;;;;;10.18;4.75;;;2.90;86.90;;;;;;4990111;28;20057;-71
2022/12/03 03:05:25;;;;;;;11.57;4.95;;;2.90;87.00;;;;;;5010565;28;20045;-72
2022/12/03 03:07:52;;;;;;;11.05;5.25;;;3.00;86.90;;;;;;5009121;28;20061;-72
2022/12/03 03:10:22;;;;;;;11.23;4.80;;;3.00;86.80;;;;;;5008879;28;20404;-72
2022/12/03 03:12:52;;;;;;;;;;;3.00;87.00;;;;;;5010238;28;20144;-70
2022/12/03 03:15:20;;;;;;;9.23;4.43;;;2.90;86.80;;;;;;5010515;28;19928;-70
2022/12/03 03:17:47;;;;;;;10.52;4.97;;;3.00;86.80;;;;;;5008313;28;20054;-70
2022/12/03 03:20:15;;;;;;;9.35;4.38;;;3.00;86.90;;;;;;5001459;28;20374;-60
2022/12/03 03:22:43;;;;;;;9.68;4.45;;;2.90;87.00;;;;;;5010193;28;20492;-60
2022/12/03 03:25:13;;;;;;;11.20;5.50;;;3.00;87.10;;;;;;5009330;28;20045;-60
2022/12/03 03:27:41;;;;;;;;;;;2.90;87.20;;;;;;5008362;28;20049;-60
2022/12/03 03:30:11;;;;;;;10.55;4.90;;;3.00;87.00;;;;;;5009183;28;19970;-60
2022/12/03 03:32:39;;;;;;;9.85;4.38;;;3.00;87.00;;;;;;5008284;28;20121;-59
2022/12/03 03:35:07;;;;;;;12.38;5.28;;;3.00;87.00;;;;;;5006488;28;20181;-60
2022/12/03 03:37:34;;;;;;;10.43;4.10;;;3.00;87.00;;;;;;5004459;28;20045;-60
2022/12/03 03:40:04;;;;;;;9.80;4.13;;;2.90;87.10;;;;;;5009027;28;20050;-60
2022/12/03 03:42:31;;;;;;;10.15;4.43;;;2.90;87.00;;;;;;5005995;28;20850;-60
2022/12/03 03:44:58;;;;;;;12.38;5.80;;;2.90;87.00;;;;;;5007116;28;20562;-60
2022/12/03 03:47:27;;;;;;;11.82;5.55;;;2.90;87.10;;;;;;5005722;28;20093;-61
2022/12/03 03:49:54;;;;;;;11.55;5.22;;;2.90;86.80;;;;;;5006956;28;20101;-63
2022/12/03 03:52:22;;;;;;;9.73;4.85;;;2.90;86.60;;;;;;5006544;28;20093;-60
2022/12/03 03:54:49;;;;;;;11.02;5.13;;;2.90;86.70;;;;;;5002168;28;20054;-59
2022/12/03 03:57:17;;;;;;;8.68;5.00;;;3.00;86.40;;;;;;5005226;28;20496;-60
2022/12/03 03:59:44;;;;;;;10.82;5.22;;;3.00;86.30;;;;;;5007578;28;20049;-60
2022/12/03 04:02:19;;;;;;;10.45;4.55;;;3.00;86.20;;;;;;5007458;28;20120;-70
2022/12/03 04:04:48;;;;;;;11.40;5.47;;;3.00;86.20;;;;;;5006255;28;20056;-72
2022/12/03 04:07:16;;;;;;;10.32;5.03;;;3.00;86.30;;;;;;5006339;28;20050;-59
2022/12/03 04:09:43;;;;;;;10.73;5.18;;;3.00;86.20;;;;;;5005051;28;20049;-60
2022/12/03 04:14:55;;;;;;;10.70;4.85;;;3.00;86.30;;;;;;4962027;28;20164;-59
2022/12/03 04:17:23;;;;;;;9.13;4.80;;;3.00;86.20;;;;;;4999164;28;20051;-60
2022/12/03 04:19:51;;;;;;;10.40;4.85;;;3.00;86.30;;;;;;4998204;28;20090;-59
2022/12/03 04:30:45;;;;;;;8.73;4.75;;;2.90;85.70;;;;;;4971260;28;20042;-59
2022/12/03 04:35:58;;;;;;;11.50;5.07;;;3.00;85.60;;;;;;4987795;28;20053;-60
2022/12/03 04:38:25;;;;;;;8.07;4.43;;;3.00;85.60;;;;;;4996380;28;20046;-60
2022/12/03 04:41:02;;;;;;;11.73;5.20;;;3.00;85.60;;;;;;5005499;28;20062;-59
2022/12/03 04:43:30;;;;;;;11.30;5.13;;;3.00;85.30;;;;;;4999559;28;20050;-60
2022/12/03 04:45:57;;;;;;;9.95;4.60;;;3.00;85.50;;;;;;5000790;28;20065;-59
2022/12/03 04:48:24;;;;;;;9.68;4.70;;;3.00;85.30;;;;;;5003658;28;20049;-60
2022/12/03 04:50:51;;;;;;;12.23;5.38;;;3.00;85.00;;;;;;4996061;28;20173;-60
2022/12/03 04:53:19;;;;;;;10.90;4.95;;;2.90;84.90;;;;;;5005260;28;22897;-60
2022/12/03 04:55:46;;;;;;;9.75;4.75;;;2.90;84.90;;;;;;5005098;28;20034;-60
2022/12/03 04:58:13;;;;;;;12.38;5.30;;;2.90;85.10;;;;;;5003197;28;20489;-60
2022/12/03 05:00:40;;;;;;;10.63;5.15;;;2.90;84.90;;;;;;4997908;28;20524;-60
2022/12/03 05:03:07;;;;;;;9.65;4.90;;;2.90;84.90;;;;;;4998325;28;20124;-59
2022/12/03 05:05:34;;;;;;;11.23;5.55;;;2.90;84.70;;;;;;5003700;28;20451;-60
2022/12/03 05:08:01;;;;;;;12.30;5.50;;;2.90;84.70;;;;;;4996128;28;20046;-61
2022/12/03 05:10:30;;;;;;;12.95;5.47;;;2.90;84.70;;;;;;4995758;28;20520;-70
2022/12/03 05:12:57;;;;;;;10.13;4.80;;;2.80;84.90;;;;;;4987419;28;20055;-71
2022/12/03 05:15:24;;;;;;;12.75;5.57;;;2.80;84.90;;;;;;4972970;28;20051;-60
2022/12/03 05:17:51;;;;;;;10.70;5.57;;;2.80;84.60;;;;;;4973268;28;20073;-60
2022/12/03 05:23:02;;;;;;;12.95;5.68;;;2.90;84.70;;;;;;4974599;28;20074;-60
2022/12/03 05:25:31;;;;;;;13.13;5.75;;;2.90;84.70;;;;;;4975080;28;20074;-71
2022/12/03 05:27:58;;;;;;;12.57;5.70;;;2.80;84.60;;;;;;4978755;28;20125;-70
2022/12/03 05:30:25;;;;;;;13.52;5.57;;;2.80;84.60;;;;;;4973678;28;20506;-60
2022/12/03 05:32:52;;;;;;;13.90;5.90;;;2.80;84.80;;;;;;4974095;28;20058;-59
2022/12/03 05:35:19;;;;;;;11.50;5.93;;;2.90;84.60;;;;;;4974806;28;20189;-60
2022/12/03 05:37:46;;;;;;;10.43;5.68;;;2.90;84.60;;;;;;4973923;28;20051;-61
2022/12/03 05:40:14;;;;;;;14.10;6.07;;;2.90;84.70;;;;;;4974889;28;20055;-70
2022/12/03 05:42:53;;;;;;;13.15;6.25;;;2.90;84.80;;;;;;4977647;28;20042;-71
2022/12/03 05:45:21;;;;;;;11.45;5.47;;;2.90;84.70;;;;;;4970895;28;20051;-71
2022/12/03 05:47:48;;;;;;;12.43;5.68;;;2.90;84.80;;;;;;4973731;28;20765;-70
2022/12/03 05:50:15;;;;;;;12.68;6.22;;;2.90;84.80;;;;;;4977730;28;20049;-60
2022/12/03 05:52:43;;;;;;;12.93;5.82;;;2.90;84.90;;;;;;4978394;28;20142;-60
2022/12/03 05:55:10;;;;;;;13.13;6.60;;;2.80;85.00;;;;;;4977620;28;20053;-59
2022/12/03 05:57:38;;;;;;;13.15;6.60;;;2.90;84.80;;;;;;4974583;28;20315;-65
2022/12/03 06:00:08;;;;;;;13.13;5.85;;;2.90;84.90;;;;;;4972773;28;20042;-65
2022/12/03 06:02:39;;;;;;;11.80;5.40;;;2.90;85.00;;;;;;4973038;28;20133;-67
2022/12/03 06:05:07;;;;;;;13.27;6.78;;;2.90;85.10;;;;;;4974062;28;20078;-64
2022/12/03 06:07:34;;;;;;;13.27;6.45;;;2.90;85.10;;;;;;4976848;28;20046;-65
2022/12/03 06:10:01;;;;;;;11.60;6.25;;;2.90;85.10;;;;;;4972557;28;20051;-65
2022/12/03 06:12:28;;;;;;;10.55;5.97;;;2.90;85.10;;;;;;4973550;28;20058;-66
2022/12/03 06:14:58;;;;;;;12.75;5.95;;;2.80;85.10;;;;;;5000065;28;20051;-65
2022/12/03 06:17:27;;;;;;;13.43;6.90;;;2.80;85.20;;;;;;5007618;28;20065;-65
2022/12/03 06:19:54;;;;;;;13.30;6.93;;;2.90;85.10;;;;;;5007569;28;20054;-66
2022/12/03 06:22:21;;;;;;;12.88;6.40;;;2.90;85.10;;;;;;5006693;28;20050;-70
2022/12/03 06:24:49;;;;;;;12.88;6.55;;;2.90;85.20;;;;;;5005039;28;20110;-70
2022/12/03 06:27:16;;;;;;;15.15;6.82;;;2.90;85.10;;;;;;5009111;28;20408;-70
2022/12/03 06:29:43;;;;;;;14.75;6.72;;;2.90;85.20;;;;;;5007930;28;20052;-71
2022/12/03 06:32:10;;;;;;;12.70;5.93;;;2.90;85.40;;;;;;5003054;28;20038;-70
2022/12/03 06:34:39;;;;;;;14.38;6.03;;;2.90;85.50;;;;;;5003177;28;20148;-70
2022/12/03 06:37:06;;;;;;;13.32;6.45;;;2.90;85.60;;;;;;5007228;28;20041;-70
2022/12/03 06:39:33;;;;;;;12.82;6.38;;;2.90;85.60;;;;;;5006204;28;20050;-70
2022/12/03 06:42:01;;;;;;;12.48;6.43;;;2.90;85.50;;;;;;4999486;28;20052;-69
2022/12/03 06:44:29;;;;;;;14.48;7.03;;;2.90;85.70;;;;;;5008781;28;20049;-71
2022/12/03 06:46:56;;;;;;;14.43;6.78;;;2.90;85.60;;;;;;5004478;28;20125;-70
2022/12/03 06:49:23;;;;;;;16.33;7.25;;;2.90;85.50;;;;;;5008116;28;20129;-71
2022/12/03 06:51:52;;;;;;;14.20;6.95;;;2.90;85.60;;;;;;5003046;28;20050;-70
2022/12/03 06:54:19;;;;;;;17.38;7.53;;;2.90;85.80;;;;;;5005991;28;20104;-69
2022/12/03 06:56:46;;;;;;;14.38;7.45;;;2.80;85.90;;;;;;5003566;28;20046;-69
2022/12/03 06:59:13;;;;;;;15.02;7.13;;;2.90;85.90;;;;;;4999662;28;20177;-71
2022/12/03 07:01:40;;;;;;;16.65;7.30;;;2.90;85.90;;;;;;4998556;28;20046;-71
2022/12/03 07:04:07;;;;;;;16.80;8.05;;;2.90;85.90;;;;;;5006273;28;20057;-70
2022/12/03 07:06:34;;;;;;;13.93;6.63;;;2.90;85.90;;;;;;5007094;28;20050;-70
2022/12/03 07:09:03;;;;;;;14.57;6.85;;;2.90;86.00;;;;;;4998836;28;20053;-70
2022/12/03 07:11:38;;;;;;;14.43;7.03;;;2.90;86.00;;;;;;4996828;28;20692;-70
2022/12/03 07:14:07;;;;;;;15.60;7.10;;;2.90;85.80;;;;;;4982869;28;20039;-70
2022/12/03 07:16:35;;;;;;;15.23;7.00;;;3.00;85.90;;;;;;4980641;28;20675;-69
2022/12/03 07:19:02;;;;;;;16.70;7.93;;;3.00;85.80;;;;;;4976785;28;20133;-70
2022/12/03 07:21:29;;;;;;;14.90;8.13;;;3.00;85.80;;;;;;4987163;28;20113;-70
2022/12/03 07:23:56;;;;;;;16.10;7.53;;;3.00;85.90;;;;;;4980163;28;20050;-70
2022/12/03 07:26:25;;;;;;;17.15;8.55;;;3.00;86.00;;;;;;4984615;28;20046;-71
2022/12/03 07:28:52;;;;;;;17.45;7.90;;;2.90;86.10;;;;;;4987566;28;20057;-70
2022/12/03 07:31:19;;;;;;;15.77;8.25;;;2.90;86.10;;;;;;4990412;28;20054;-70
2022/12/03 07:33:47;;;;;;;17.35;8.95;;;3.00;86.20;;;;;;4988764;28;20073;-70
2022/12/03 07:36:14;;;;;;;17.08;8.05;;;2.90;86.30;;;;;;4989040;28;20065;-70
2022/12/03 07:38:41;;;;;;;16.60;7.82;;;3.00;86.20;;;;;;4987974;28;20121;-71
2022/12/03 07:41:08;;;;;;;16.10;7.88;;;3.00;86.20;;;;;;4980341;28;20093;-70
2022/12/03 07:43:36;;;;;;;16.42;8.27;;;2.90;86.10;;;;;;4983860;28;20057;-70
2022/12/03 07:46:03;;;;;;;17.00;8.50;;;2.90;86.30;;;;;;4986904;28;20053;-69
2022/12/03 07:48:30;;;;;;;16.75;8.70;;;3.00;86.30;;;;;;4979150;28;20124;-69
2022/12/03 07:50:58;;;;;;;15.13;7.70;;;3.00;86.20;;;;;;4979687;28;20051;-71
2022/12/03 07:53:25;;;;;;;17.65;8.32;;;3.00;86.20;;;;;;4983829;28;20049;-71
2022/12/03 07:55:52;;;;;;;17.13;8.43;;;3.00;86.10;;;;;;4984873;28;20129;-70
2022/12/03 07:58:19;;;;;;;18.55;8.48;;;3.00;86.00;;;;;;4983479;28;20065;-70
2022/12/03 08:00:47;;;;;;;19.92;9.77;;;3.00;86.10;;;;;;4980883;28;20133;-69
2022/12/03 08:03:14;;;;;;;17.38;9.07;;;3.00;86.10;;;;;;4983455;28;20050;-71
2022/12/03 08:05:41;;;;;;;15.35;7.93;;;3.00;86.10;;;;;;4977930;28;20046;-70
2022/12/03 08:08:08;;;;;;;18.08;9.07;;;3.00;86.20;;;;;;4981665;28;20056;-70
2022/12/03 08:10:35;;;;;;;19.08;9.60;;;3.00;86.10;;;;;;4975166;28;20047;-70
2022/12/03 08:13:06;;;;;;;21.15;10.13;;;3.00;86.10;;;;;;4996931;28;20062;-70
2022/12/03 08:15:33;;;;;;;18.00;8.27;;;3.00;86.10;;;;;;5002745;28;20074;-71
2022/12/03 08:18:11;;;;;;;20.95;9.05;;;3.00;86.10;;;;;;5000605;28;20048;-71
2022/12/03 08:20:41;;;;;;;18.08;9.38;;;3.00;86.00;;;;;;4999132;28;20077;-69
2022/12/03 08:23:13;;;;;;;18.88;9.38;;;3.10;86.00;;;;;;5004979;28;20053;-71
2022/12/03 08:25:41;;;;;;;19.48;8.98;;;3.10;86.00;;;;;;4992413;28;20061;-70
2022/12/03 08:28:13;;;;;;;17.55;9.30;;;3.00;86.10;;;;;;4997486;28;20045;-70
2022/12/03 08:30:41;;;;;;;19.45;9.35;;;3.10;86.10;;;;;;5005343;28;20057;-71
2022/12/03 08:33:23;;;;;;;16.27;8.68;;;3.10;86.10;;;;;;5005070;28;20109;-72
2022/12/03 08:35:51;;;;;;;19.23;9.07;;;3.10;86.00;;;;;;4994161;28;20217;-70
2022/12/03 08:38:21;;;;;;;19.00;9.60;;;3.10;85.70;;;;;;5002701;28;20056;-70
2022/12/03 08:40:51;;;;;;;21.90;10.98;;;3.10;85.70;;;;;;4995560;28;20061;-70
2022/12/03 08:43:20;;;;;;;22.08;9.88;;;3.10;85.60;;;;;;5005938;28;20046;-70
2022/12/03 08:45:48;;;;;;;22.30;10.15;;;3.10;85.50;;;;;;4993252;28;20046;-71
2022/12/03 08:48:31;;;;;;;20.27;10.00;;;3.10;85.60;;;;;;5001912;28;20058;-70
2022/12/03 08:51:01;;;;;;;18.80;9.07;;;3.10;85.40;;;;;;4996881;28;20420;-70
2022/12/03 08:53:37;;;;;;;20.73;9.55;;;3.10;85.30;;;;;;5006134;28;20053;-70
2022/12/03 08:56:12;;;;;;;21.58;10.63;;;3.10;85.20;;;;;;4997769;28;20137;-71
2022/12/03 08:58:41;;;;;;;21.35;11.38;;;3.10;85.10;;;;;;4998479;28;20049;-70
2022/12/03 09:01:31;;;;;;;26.23;11.50;;;3.10;85.20;;;;;;4997969;28;20115;-60
2022/12/03 09:04:15;;;;;;;21.38;9.77;;;3.10;85.00;;;;;;4965226;28;20065;-60
2022/12/03 09:06:42;;;;;;;21.38;11.10;;;3.10;84.90;;;;;;5001644;28;20045;-60
2022/12/03 09:09:09;;;;;;;22.67;10.68;;;3.10;84.80;;;;;;5000621;28;20046;-60
2022/12/03 09:11:37;;;;;;;18.65;9.25;;;3.10;84.90;;;;;;5001221;28;20052;-60
2022/12/03 09:14:05;;;;;;;25.38;11.20;;;3.10;84.80;;;;;;5003486;28;20054;-60
2022/12/03 09:16:32;;;;;;;21.77;11.50;;;3.20;84.70;;;;;;5002134;28;20084;-60
2022/12/03 09:19:01;;;;;;;23.58;10.80;;;3.20;84.80;;;;;;5004537;28;20835;-61
2022/12/03 09:21:28;;;;;;;22.17;10.93;;;3.20;84.60;;;;;;4996166;28;20117;-60
2022/12/03 09:23:57;;;;;;;22.65;11.15;;;3.10;84.90;;;;;;4988237;28;20073;-61
2022/12/03 09:26:24;;;;;;;25.20;12.13;;;3.20;85.00;;;;;;5007170;28;20054;-61
2022/12/03 09:28:51;;;;;;;24.00;11.68;;;3.20;84.90;;;;;;5001857;28;20077;-61
2022/12/03 09:31:18;;;;;;;26.35;12.48;;;3.20;84.90;;;;;;4999344;28;20045;-60
2022/12/03 09:33:45;;;;;;;23.98;12.02;;;3.10;85.10;;;;;;4989474;28;20066;-61
2022/12/03 09:36:14;;;;;;;23.70;12.05;;;3.20;85.10;;;;;;5000695;28;20050;-62
2022/12/03 09:38:41;;;;;;;22.15;11.45;;;3.20;85.00;;;;;;5005910;28;20133;-60
2022/12/03 09:41:09;;;;;;;25.10;12.07;;;3.20;85.20;;;;;;4996808;28;20081;-61
2022/12/03 09:43:36;;;;;;;24.90;11.68;;;3.20;85.20;;;;;;4995161;28;20046;-60
2022/12/03 09:46:04;;;;;;;21.55;10.57;;;3.20;85.00;;;;;;4997352;28;20053;-60
2022/12/03 09:48:31;;;;;;;22.38;11.07;;;3.20;85.10;;;;;;5004007;28;20049;-60
2022/12/03 09:50:58;;;;;;;25.88;11.90;;;3.20;85.20;;;;;;5002753;28;20606;-60
2022/12/03 09:53:27;;;;;;;24.65;11.95;;;3.30;85.10;;;;;;5007155;28;20045;-61
2022/12/03 09:55:57;;;;;;;25.75;12.38;;;3.30;85.10;;;;;;4981679;28;20060;-61
2022/12/03 09:58:26;;;;;;;23.65;11.30;;;3.30;85.10;;;;;;5000012;28;20054;-61
2022/12/03 10:00:54;;;;;;;27.02;12.88;;;3.30;85.20;;;;;;4990505;28;20048;-60
2022/12/03 10:03:24;;;;;;;23.13;12.02;;;3.30;85.10;;;;;;4996901;28;20121;-60
2022/12/03 10:05:53;;;;;;;27.03;12.47;;;3.30;85.00;;;;;;5005385;28;20077;-59
2022/12/03 10:08:22;;;;;;;25.38;12.35;;;3.30;85.20;;;;;;4994819;28;20049;-60
2022/12/03 10:10:55;;;;;;;24.13;11.63;;;3.30;85.20;;;;;;4998389;28;20057;-60
2022/12/03 10:13:25;;;;;;;25.23;12.93;;;3.30;85.20;;;;;;5001401;28;20140;-61
2022/12/03 10:15:54;;;;;;;22.77;11.03;;;3.30;85.20;;;;;;5002586;28;20119;-60
2022/12/03 10:18:24;;;;;;;25.25;11.65;;;3.30;85.10;;;;;;5006054;28;20048;-61
2022/12/03 10:20:51;;;;;;;25.75;12.00;;;3.40;85.20;;;;;;5001243;28;20050;-61
2022/12/03 10:23:27;;;;;;;25.65;12.50;;;3.30;85.20;;;;;;5000289;28;20045;-60
2022/12/03 10:25:58;;;;;;;23.13;11.77;;;3.40;85.20;;;;;;4997893;28;20042;-70
2022/12/03 10:28:29;;;;;;;;;;;3.40;85.20;;;;;;5007653;28;20045;-70
2022/12/03 10:30:57;;;;;;;23.88;11.18;;;3.40;85.20;;;;;;5004408;28;20019;-71
2022/12/03 10:33:30;;;;;;;23.65;10.98;;;3.40;85.10;;;;;;4993722;28;20282;-70
2022/12/03 10:35:59;;;;;;;25.48;11.65;;;3.40;85.20;;;;;;5003605;28;20037;-69
2022/12/03 10:38:26;;;;;;;28.73;11.90;;;3.40;85.20;;;;;;5004330;28;20053;-71
2022/12/03 10:40:53;;;;;;;22.67;11.00;;;3.40;85.30;;;;;;4984421;28;20488;-71
2022/12/03 10:43:25;;;;;;;23.23;11.55;;;3.40;85.40;;;;;;5001511;28;20034;-71
2022/12/03 10:46:11;;;;;;;22.75;11.55;;;3.40;85.30;;;;;;5001706;28;20508;-70
2022/12/03 10:48:38;;;;;;;22.50;11.02;;;3.40;85.10;;;;;;5003666;28;20038;-70
2022/12/03 10:51:10;;;;;;;22.70;11.13;;;3.50;85.20;;;;;;5002874;28;20058;-70
2022/12/03 10:53:40;;;;;;;23.95;11.27;;;3.50;85.20;;;;;;4999569;28;20211;-71
2022/12/03 10:56:11;;;;;;;24.53;11.73;;;3.50;85.10;;;;;;4992942;28;20500;-71
2022/12/03 10:58:41;;;;;;;22.55;11.98;;;3.50;85.20;;;;;;5004078;28;20049;-69
2022/12/03 11:01:16;;;;;;;22.60;12.33;;;3.50;85.00;;;;;;4993917;28;20390;-64
2022/12/03 11:03:43;;;;;;;24.35;12.32;;;3.50;85.20;;;;;;4995050;28;20456;-64
2022/12/03 11:06:15;;;;;;;21.13;11.02;;;3.50;85.20;;;;;;4993982;28;20074;-64
2022/12/03 11:08:44;;;;;;;21.70;11.05;;;3.50;85.00;;;;;;5005265;28;20048;-64
2022/12/03 11:11:18;;;;;;;22.13;11.05;;;3.50;85.00;;;;;;4998509;28;20054;-64
2022/12/03 11:13:49;;;;;;;20.98;10.88;;;3.50;85.00;;;;;;5003931;28;20512;-63
2022/12/03 11:17:04;;;;;;;20.25;10.98;;;3.50;85.00;;;;;;4997919;28;20052;-63
2022/12/03 11:19:48;;;;;;;21.48;10.85;;;3.60;84.90;;;;;;4935356;29;20054;-64
2022/12/03 11:22:27;;;;;;;21.70;10.65;;;3.50;85.00;;;;;;4923238;29;20059;-64
2022/12/03 11:25:44;;;;;;;22.70;10.70;;;3.50;84.90;;;;;;4973606;28;20117;-63
2022/12/03 11:28:35;;;;;;;25.25;11.50;;;3.50;84.90;;;;;;4978636;28;20054;-63
2022/12/03 11:31:10;;;;;;;21.63;11.05;;;3.50;85.00;;;;;;4997207;28;20041;-64
2022/12/03 11:33:39;;;;;;;25.67;11.93;;;3.50;85.00;;;;;;5003053;28;20465;-64
2022/12/03 11:36:12;;;;;;;22.48;11.52;;;3.50;85.00;;;;;;5005158;28;20318;-63
2022/12/03 11:38:56;;;;;;;23.27;11.27;;;3.50;85.00;;;;;;5001018;28;20131;-64
2022/12/03 11:41:29;;;;;;;22.55;11.63;;;3.50;85.00;;;;;;4982553;28;20682;-63
2022/12/03 11:44:14;;;;;;;27.42;12.52;;;3.50;85.10;;;;;;5007634;28;20451;-64
2022/12/03 11:46:45;;;;;;;25.83;12.15;;;3.50;84.90;;;;;;4987202;28;20132;-63
2022/12/03 11:49:32;;;;;;;23.58;11.27;;;3.60;84.90;;;;;;4994784;28;20057;-64
2022/12/03 11:52:04;;;;;;;24.17;11.88;;;3.50;84.80;;;;;;4998515;28;20034;-64
2022/12/03 11:54:34;;;;;;;;;;;3.50;84.80;;;;;;4999671;28;20042;-63
2022/12/03 11:57:02;;;;;;;24.40;11.20;;;3.50;84.90;;;;;;4986772;28;19928;-63
2022/12/03 11:59:29;;;;;;;22.38;11.23;;;3.50;84.90;;;;;;4997035;28;20046;-62
2022/12/03 12:01:57;;;;;;;26.95;12.38;;;3.50;85.00;;;;;;4993416;28;20070;-63
2022/12/03 12:04:30;;;;;;;21.98;12.23;;;3.60;84.90;;;;;;4995105;28;20046;-63
2022/12/03 12:06:57;;;;;;;22.77;12.18;;;3.60;84.90;;;;;;5003262;28;20112;-64
2022/12/03 12:09:50;;;;;;;24.92;12.18;;;3.60;84.90;;;;;;4989751;28;20490;-64
2022/12/03 12:12:27;;;;;;;25.05;12.48;;;3.50;85.00;;;;;;4993870;28;20068;-60
2022/12/03 12:14:54;;;;;;;22.50;12.13;;;3.60;85.20;;;;;;4993802;28;20124;-60
2022/12/03 12:17:36;;;;;;;22.83;11.32;;;3.60;85.10;;;;;;5000796;28;20705;-60
2022/12/03 12:20:23;;;;;;;22.50;11.32;;;3.60;85.00;;;;;;4992861;28;20721;-60
2022/12/03 12:22:51;;;;;;;22.60;11.88;;;3.50;85.00;;;;;;4996926;28;20197;-60
2022/12/03 12:25:38;;;;;;;25.83;11.93;;;3.60;85.00;;;;;;4996761;28;20050;-60
2022/12/03 12:28:06;;;;;;;23.35;11.63;;;3.60;85.00;;;;;;5004417;28;20492;-61
2022/12/03 12:30:39;;;;;;;22.58;11.15;;;3.60;84.90;;;;;;4997223;28;20103;-61
2022/12/03 12:33:16;;;;;;;26.88;11.63;;;3.60;85.00;;;;;;4986482;28;20503;-60
2022/12/03 12:35:43;;;;;;;24.35;11.60;;;3.60;85.10;;;;;;5002305;28;20069;-60
2022/12/03 12:38:15;;;;;;;23.98;11.43;;;3.60;85.10;;;;;;5005693;28;20420;-60
2022/12/03 12:40:45;;;;;;;23.45;11.02;;;3.60;85.00;;;;;;5004122;28;20046;-60
2022/12/03 12:43:32;;;;;;;22.63;11.35;;;3.60;85.00;;;;;;4997872;28;20046;-60
2022/12/03 12:46:01;;;;;;;21.55;11.85;;;3.60;85.10;;;;;;4994567;28;20204;-60
2022/12/03 12:48:34;;;;;;;24.58;11.55;;;3.60;84.90;;;;;;5004515;28;20117;-61
2022/12/03 12:51:09;;;;;;;21.85;11.38;;;3.70;85.00;;;;;;5001717;28;20042;-61
2022/12/03 12:53:37;;;;;;;25.60;11.40;;;3.70;84.90;;;;;;5000134;28;20037;-60
2022/12/03 12:56:12;;;;;;;23.30;10.98;;;3.60;84.80;;;;;;5000377;28;20129;-61
2022/12/03 12:58:42;;;;;;;24.63;10.65;;;3.60;84.90;;;;;;4992479;28;20064;-59
2022/12/03 13:01:16;;;;;;;23.95;12.07;;;3.60;84.90;;;;;;4995864;28;20440;-60
2022/12/03 13:03:44;;;;;;;24.92;12.30;;;3.50;84.70;;;;;;5001414;28;20046;-60
2022/12/03 13:06:15;;;;;;;20.48;10.90;;;3.50;84.80;;;;;;4993318;28;20048;-60
2022/12/03 13:08:45;;;;;;;25.27;11.70;;;3.60;85.00;;;;;;4996172;28;20125;-60
2022/12/03 13:11:29;;;;;;;22.73;11.48;;;3.60;85.00;;;;;;4998768;28;20050;-60
2022/12/03 13:13:56;;;;;;;24.75;11.80;;;3.70;84.90;;;;;;4995951;28;20070;-60
2022/12/03 13:16:27;;;;;;;22.38;10.75;;;3.70;85.00;;;;;;4997739;28;20072;-60